createdAt,value
2016-07-15T00:00:34.852Z,95.08
2016-07-15T00:01:34.847Z,94.89
2016-07-15T00:02:34.891Z,94.51
2016-07-15T00:03:34.883Z,94.98
2016-07-15T00:04:34.887Z,94.93
2016-07-15T00:05:34.884Z,95.12
2016-07-15T00:06:34.171Z,94.84
2016-07-15T00:07:34.887Z,94.93
2016-07-15T00:08:34.848Z,94.93
2016-07-15T00:09:34.848Z,95.12
2016-07-15T00:10:34.844Z,95.03
2016-07-15T00:11:34.844Z,94.84
2016-07-15T00:12:34.844Z,95.22
2016-07-15T00:13:34.844Z,95.03
2016-07-15T00:14:34.848Z,95.32
2016-07-15T00:15:34.844Z,95.22
2016-07-15T00:16:34.844Z,95.12
2016-07-15T00:17:34.841Z,95.12
2016-07-15T00:18:34.840Z,95.22
2016-07-15T00:19:34.841Z,95.03
2016-07-15T00:20:34.841Z,95.6
2016-07-15T00:21:34.840Z,95.6
2016-07-15T00:22:34.841Z,95.6
2016-07-15T00:23:34.841Z,95.65
2016-07-15T00:24:34.837Z,95.17
2016-07-15T00:25:34.836Z,95.56
2016-07-15T00:26:34.837Z,95.36
2016-07-15T00:27:34.837Z,95.27
2016-07-15T00:28:34.837Z,95.17
2016-07-15T00:29:34.837Z,95.08
2016-07-15T00:30:34.837Z,95.17
2016-07-15T00:31:34.837Z,95.17
2016-07-15T00:32:34.838Z,94.98
2016-07-15T00:33:34.833Z,95.36
2016-07-15T00:34:34.833Z,95.17
2016-07-15T00:35:34.838Z,94.98
2016-07-15T00:36:34.833Z,94.79
2016-07-15T00:37:34.834Z,95.17
2016-07-15T00:38:34.833Z,94.98
2016-07-15T00:39:34.833Z,94.98
2016-07-15T00:40:34.829Z,95.17
2016-07-15T00:41:34.877Z,94.89
2016-07-15T00:42:34.830Z,94.98
2016-07-15T00:43:34.830Z,94.98
2016-07-15T00:44:34.830Z,95.36
2016-07-15T00:45:34.834Z,95.17
2016-07-15T00:46:34.829Z,94.6
2016-07-15T00:47:34.830Z,95.36
2016-07-15T00:48:34.830Z,94.89
2016-07-15T00:49:34.825Z,94.6
2016-07-15T00:50:34.826Z,94.98
2016-07-15T00:51:34.825Z,95.36
2016-07-15T00:52:34.826Z,94.98
2016-07-15T00:53:34.825Z,94.41
2016-07-15T00:54:34.825Z,94.79
2016-07-15T00:55:34.826Z,94.6
2016-07-15T00:56:34.826Z,94.51
2016-07-15T00:57:34.822Z,94.79
2016-07-15T00:58:34.822Z,94.7
2016-07-15T00:59:34.829Z,94.7
2016-07-15T01:00:34.821Z,94.51
2016-07-15T01:01:34.822Z,94.32
2016-07-15T01:02:34.901Z,94.32
2016-07-15T01:03:34.901Z,94.37
2016-07-15T01:04:34.902Z,94.7
2016-07-15T01:05:34.897Z,94.65
2016-07-15T01:06:34.898Z,94.74
2016-07-15T01:07:34.898Z,94.56
2016-07-15T01:08:34.909Z,94.65
2016-07-15T01:09:34.898Z,94.93
2016-07-15T01:10:34.897Z,94.56
2016-07-15T01:11:34.898Z,95.03
2016-07-15T01:12:34.894Z,94.74
2016-07-15T01:13:34.894Z,94.74
2016-07-15T01:14:34.894Z,94.74
2016-07-15T01:15:34.893Z,94.65
2016-07-15T01:16:34.894Z,94.84
2016-07-15T01:17:34.894Z,94.84
2016-07-15T01:18:34.894Z,94.84
2016-07-15T01:19:34.170Z,94.56
2016-07-15T01:20:34.890Z,94.74
2016-07-15T01:21:34.890Z,94.37
2016-07-15T01:22:34.890Z,94.56
2016-07-15T01:23:34.889Z,94.74
2016-07-15T01:24:34.890Z,94.93
2016-07-15T01:25:34.889Z,94.65
2016-07-15T01:26:34.891Z,94.93
2016-07-15T01:27:34.890Z,94.74
2016-07-15T01:28:34.886Z,94.37
2016-07-15T01:29:34.886Z,94.74
2016-07-15T01:30:34.886Z,94.65
2016-07-15T01:31:34.886Z,95.22
2016-07-15T01:32:34.888Z,95.32
2016-07-15T01:33:34.887Z,94.93
2016-07-15T01:34:34.886Z,94.56
2016-07-15T01:35:34.886Z,95.32
2016-07-15T01:36:34.886Z,95.03
2016-07-15T01:37:34.882Z,94.37
2016-07-15T01:38:34.883Z,94.37
2016-07-15T01:39:34.883Z,94.93
2016-07-15T01:40:34.882Z,94.74
2016-07-15T01:41:34.883Z,94.93
2016-07-15T01:42:34.883Z,94.37
2016-07-15T01:43:34.882Z,95.12
2016-07-15T01:44:34.883Z,94.27
2016-07-15T01:45:34.879Z,94.27
2016-07-15T01:46:34.877Z,95.12
2016-07-15T01:47:34.879Z,95.32
2016-07-15T01:48:34.878Z,95.03
2016-07-15T01:49:34.879Z,94.27
2016-07-15T01:50:34.878Z,95.12
2016-07-15T01:51:34.878Z,94.27
2016-07-15T01:52:34.875Z,95.03
2016-07-15T01:53:34.879Z,95.12
2016-07-15T01:54:34.874Z,94.17
2016-07-15T01:55:34.875Z,94.65
2016-07-15T01:56:34.874Z,94.46
2016-07-15T01:57:34.875Z,95.51
2016-07-15T01:58:34.874Z,95.03
2016-07-15T01:59:34.871Z,94.84
2016-07-15T02:00:34.875Z,94.84
2016-07-15T02:01:34.883Z,94.93
2016-07-15T02:02:34.871Z,94.93
2016-07-15T02:03:34.871Z,94.93
2016-07-15T02:04:34.870Z,94.84
2016-07-15T02:05:34.868Z,95.51
2016-07-15T02:06:34.871Z,95.22
2016-07-15T02:07:34.877Z,95.22
2016-07-15T02:08:34.875Z,95.32
2016-07-15T02:09:34.867Z,95.32
2016-07-15T02:10:34.871Z,95.6
2016-07-15T02:11:34.867Z,95.03
2016-07-15T02:12:34.867Z,95.03
2016-07-15T02:13:34.867Z,95.03
2016-07-15T02:14:34.868Z,94.93
2016-07-15T02:15:34.867Z,95.03
2016-07-15T02:16:34.868Z,94.84
2016-07-15T02:17:34.863Z,94.93
2016-07-15T02:18:34.863Z,94.93
2016-07-15T02:19:34.863Z,94.93
2016-07-15T02:20:34.140Z,94.84
2016-07-15T02:21:34.875Z,95.03
2016-07-15T02:22:34.864Z,95.03
2016-07-15T02:23:34.143Z,95.03
2016-07-15T02:24:34.860Z,95.12
2016-07-15T02:25:34.860Z,94.84
2016-07-15T02:26:34.859Z,94.93
2016-07-15T02:27:34.860Z,94.93
2016-07-15T02:28:34.864Z,94.93
2016-07-15T02:29:34.859Z,94.84
2016-07-15T02:30:34.860Z,94.93
2016-07-15T02:31:34.859Z,94.84
2016-07-15T02:32:34.857Z,95.22
2016-07-15T02:33:34.851Z,95.32
2016-07-15T02:34:34.864Z,94.65
2016-07-15T02:35:34.868Z,94.37
2016-07-15T02:36:34.856Z,94.74
2016-07-15T02:37:34.856Z,94.46
2016-07-15T02:38:34.856Z,94.74
2016-07-15T02:39:34.856Z,95.12
2016-07-15T02:40:34.847Z,94.37
2016-07-15T02:41:34.899Z,94.74
2016-07-15T02:42:34.852Z,95.41
2016-07-15T02:43:34.851Z,94.37
2016-07-15T02:44:34.852Z,94.93
2016-07-15T02:45:34.851Z,94.84
2016-07-15T02:46:34.847Z,94.56
2016-07-15T02:47:34.849Z,95.03
2016-07-15T02:48:34.847Z,94.93
2016-07-15T02:49:34.849Z,94.93
2016-07-15T02:50:34.847Z,94.74
2016-07-15T02:51:34.847Z,95.22
2016-07-15T02:52:34.847Z,94.65
2016-07-15T02:53:34.844Z,94.74
2016-07-15T02:54:34.844Z,94.65
2016-07-15T02:55:34.844Z,94.65
2016-07-15T02:56:34.843Z,94.74
2016-07-15T02:57:34.843Z,94.65
2016-07-15T02:58:34.843Z,94.84
2016-07-15T02:59:34.844Z,95.22
2016-07-15T03:00:34.840Z,95.32
2016-07-15T03:01:34.840Z,95.32
2016-07-15T03:02:34.840Z,95.36
2016-07-15T03:03:34.844Z,95.36
2016-07-15T03:04:34.839Z,95.27
2016-07-15T03:05:34.851Z,95.36
2016-07-15T03:06:34.840Z,94.79
2016-07-15T03:07:34.840Z,94.89
2016-07-15T03:08:34.836Z,94.98
2016-07-15T03:09:34.849Z,94.6
2016-07-15T03:10:34.880Z,94.7
2016-07-15T03:11:34.835Z,94.51
2016-07-15T03:12:34.836Z,94.6
2016-07-15T03:13:34.835Z,94.41
2016-07-15T03:14:34.835Z,94.7
2016-07-15T03:15:34.836Z,94.51
2016-07-15T03:16:34.833Z,94.41
2016-07-15T03:17:34.836Z,94.6
2016-07-15T03:18:34.832Z,94.6
2016-07-15T03:19:34.834Z,94.13
2016-07-15T03:20:34.833Z,94.22
2016-07-15T03:21:34.832Z,94.51
2016-07-15T03:22:34.833Z,94.51
2016-07-15T03:23:34.829Z,94.32
2016-07-15T03:24:34.829Z,94.32
2016-07-15T03:25:34.826Z,94.22
2016-07-15T03:26:34.828Z,94.32
2016-07-15T03:27:34.826Z,94.41
2016-07-15T03:28:34.828Z,94.41
2016-07-15T03:29:34.832Z,94.7
2016-07-15T03:30:34.830Z,94.22
2016-07-15T03:31:34.826Z,94.13
2016-07-15T03:32:34.826Z,94.32
2016-07-15T03:33:34.825Z,94.32
2016-07-15T03:34:34.826Z,94.22
2016-07-15T03:35:34.826Z,94.41
2016-07-15T03:36:34.826Z,93.55
2016-07-15T03:37:34.826Z,93.74
2016-07-15T03:38:34.821Z,93.74
2016-07-15T03:39:34.821Z,93.55
2016-07-15T03:40:34.817Z,93.46
2016-07-15T03:41:34.822Z,93.74
2016-07-15T03:42:34.817Z,93.74
2016-07-15T03:43:34.821Z,93.46
2016-07-15T03:44:34.822Z,93.84
2016-07-15T03:45:34.098Z,93.65
2016-07-15T03:46:34.818Z,93.74
2016-07-15T03:47:34.817Z,93.65
2016-07-15T03:48:34.817Z,93.55
2016-07-15T03:49:34.822Z,93.17
2016-07-15T03:50:34.822Z,93.46
2016-07-15T03:51:34.817Z,93.46
2016-07-15T03:52:34.815Z,93.46
2016-07-15T03:53:34.813Z,93.74
2016-07-15T03:54:34.818Z,93.74
2016-07-15T03:55:34.814Z,93.55
2016-07-15T03:56:34.810Z,93.08
2016-07-15T03:57:34.818Z,93.17
2016-07-15T03:58:34.813Z,93.08
2016-07-15T03:59:34.810Z,92.69
2016-07-15T04:00:34.810Z,93.17
2016-07-15T04:01:34.810Z,93.17
2016-07-15T04:02:34.810Z,93.08
2016-07-15T04:03:34.810Z,93.37
2016-07-15T04:04:34.811Z,93.17
2016-07-15T04:05:34.810Z,92.6
2016-07-15T04:06:34.810Z,92.41
2016-07-15T04:07:34.806Z,92.5
2016-07-15T04:08:34.806Z,92.5
2016-07-15T04:09:34.807Z,92.69
2016-07-15T04:10:34.806Z,92.74
2016-07-15T04:11:34.806Z,92.22
2016-07-15T04:12:34.806Z,92.5
2016-07-15T04:13:34.802Z,92.55
2016-07-15T04:14:34.806Z,92.74
2016-07-15T04:15:34.803Z,92.84
2016-07-15T04:16:34.802Z,92.17
2016-07-15T04:17:34.802Z,92.27
2016-07-15T04:18:34.802Z,92.46
2016-07-15T04:19:34.802Z,92.55
2016-07-15T04:20:34.798Z,92.22
2016-07-15T04:21:34.803Z,92.17
2016-07-15T04:22:34.798Z,92.36
2016-07-15T04:23:34.798Z,91.6
2016-07-15T04:24:34.799Z,91.6
2016-07-15T04:25:34.799Z,91.79
2016-07-15T04:26:34.803Z,91.79
2016-07-15T04:27:34.799Z,91.41
2016-07-15T04:28:34.798Z,91.69
2016-07-15T04:29:34.794Z,91.69
2016-07-15T04:30:34.790Z,91.69
2016-07-15T04:31:34.794Z,91.69
2016-07-15T04:32:34.799Z,91.79
2016-07-15T04:33:34.795Z,91.79
2016-07-15T04:34:34.795Z,91.41
2016-07-15T04:35:34.794Z,91.41
2016-07-15T04:36:34.798Z,91.6
2016-07-15T04:37:34.792Z,91.22
2016-07-15T04:38:34.794Z,91.03
2016-07-15T04:39:34.791Z,91.5
2016-07-15T04:40:34.791Z,90.74
2016-07-15T04:41:34.791Z,90.93
2016-07-15T04:42:34.791Z,90.93
2016-07-15T04:43:34.791Z,90.45
2016-07-15T04:44:34.788Z,90.64
2016-07-15T04:45:34.795Z,90.74
2016-07-15T04:46:34.787Z,90.55
2016-07-15T04:47:34.787Z,90.55
2016-07-15T04:48:34.783Z,89.89
2016-07-15T04:49:34.795Z,89.89
2016-07-15T04:50:34.787Z,89.93
2016-07-15T04:51:34.788Z,89.98
2016-07-15T04:52:34.788Z,89.54
2016-07-15T04:53:34.784Z,89.5
2016-07-15T04:54:34.788Z,89.54
2016-07-15T04:55:34.783Z,89.36
2016-07-15T04:56:34.788Z,89.07
2016-07-15T04:57:34.788Z,89.07
2016-07-15T04:58:34.796Z,89.36
2016-07-15T04:59:34.783Z,89.17
2016-07-15T05:00:34.787Z,88.88
2016-07-15T05:01:34.784Z,88.78
2016-07-15T05:02:34.780Z,88.88
2016-07-15T05:03:34.781Z,88.98
2016-07-15T05:04:34.780Z,88.5
2016-07-15T05:05:34.780Z,88.5
2016-07-15T05:06:34.781Z,88.88
2016-07-15T05:07:34.780Z,88.69
2016-07-15T05:08:34.780Z,88.02
2016-07-15T05:09:34.780Z,88.12
2016-07-15T05:10:34.776Z,88.21
2016-07-15T05:11:34.776Z,88.21
2016-07-15T05:12:34.776Z,88.02
2016-07-15T05:13:34.776Z,87.83
2016-07-15T05:14:34.777Z,87.83
2016-07-15T05:15:34.776Z,87.54
2016-07-15T05:16:34.772Z,87.64
2016-07-15T05:17:34.782Z,87.26
2016-07-15T05:18:34.776Z,87.64
2016-07-15T05:19:34.777Z,87.45
2016-07-15T05:20:34.772Z,86.88
2016-07-15T05:21:34.773Z,86.98
2016-07-15T05:22:34.773Z,87.26
2016-07-15T05:23:34.776Z,87.26
2016-07-15T05:24:34.773Z,86.59
2016-07-15T05:25:34.773Z,86.88
2016-07-15T05:26:34.773Z,86.4
2016-07-15T05:27:34.772Z,86.35
2016-07-15T05:28:34.772Z,86.54
2016-07-15T05:29:34.769Z,86.25
2016-07-15T05:30:34.769Z,86.16
2016-07-15T05:31:34.780Z,86.06
2016-07-15T05:32:34.769Z,86.06
2016-07-15T05:33:34.768Z,86.16
2016-07-15T05:34:34.770Z,86.25
2016-07-15T05:35:34.769Z,86.06
2016-07-15T05:36:34.770Z,86.06
2016-07-15T05:37:34.770Z,85.77
2016-07-15T05:38:34.769Z,86.06
2016-07-15T05:39:34.765Z,85.58
2016-07-15T05:40:34.765Z,85.97
2016-07-15T05:41:34.766Z,86.06
2016-07-15T05:42:34.777Z,85.87
2016-07-15T05:43:34.766Z,85.68
2016-07-15T05:44:34.765Z,86.06
2016-07-15T05:45:34.766Z,85.87
2016-07-15T05:46:34.769Z,85.87
2016-07-15T05:47:34.769Z,86.16
2016-07-15T05:48:34.767Z,86.35
2016-07-15T05:49:34.765Z,86.25
2016-07-15T05:50:34.761Z,86.25
2016-07-15T05:51:34.762Z,86.25
2016-07-15T05:52:34.761Z,86.25
2016-07-15T05:53:34.761Z,86.16
2016-07-15T05:54:34.762Z,86.44
2016-07-15T05:55:34.761Z,86.35
2016-07-15T05:56:34.762Z,86.44
2016-07-15T05:57:34.762Z,85.97
2016-07-15T05:58:34.762Z,86.06
2016-07-15T05:59:34.762Z,85.68
2016-07-15T06:00:34.770Z,85.97
2016-07-15T06:01:34.757Z,85.97
2016-07-15T06:02:34.758Z,86.35
2016-07-15T06:03:34.758Z,86.25
2016-07-15T06:04:34.757Z,85.97
2016-07-15T06:05:34.758Z,85.77
2016-07-15T06:06:34.758Z,85.77
2016-07-15T06:07:34.038Z,85.63
2016-07-15T06:08:34.758Z,85.91
2016-07-15T06:09:34.758Z,85.34
2016-07-15T06:10:34.758Z,85.44
2016-07-15T06:11:34.758Z,85.25
2016-07-15T06:12:34.754Z,85.63
2016-07-15T06:13:34.757Z,85.05
2016-07-15T06:14:34.754Z,84.62
2016-07-15T06:15:34.762Z,84.05
2016-07-15T06:16:34.754Z,84.23
2016-07-15T06:17:34.750Z,83.76
2016-07-15T06:18:34.753Z,83.86
2016-07-15T06:19:34.754Z,83.28
2016-07-15T06:20:34.754Z,83.13
2016-07-15T06:21:34.754Z,82.65
2016-07-15T06:22:34.755Z,82.08
2016-07-15T06:23:34.754Z,81.65
2016-07-15T06:24:34.754Z,81.36
2016-07-15T06:25:34.755Z,80.98
2016-07-15T06:26:34.754Z,80.5
2016-07-15T06:27:34.755Z,79.93
2016-07-15T06:28:34.755Z,79.93
2016-07-15T06:29:34.754Z,79.93
2016-07-15T06:30:34.754Z,79.35
2016-07-15T06:31:34.759Z,78.97
2016-07-15T06:32:34.755Z,79.25
2016-07-15T06:33:34.755Z,79.35
2016-07-15T06:34:34.754Z,78.68
2016-07-15T06:35:34.755Z,78.68
2016-07-15T06:36:34.754Z,78.3
2016-07-15T06:37:34.754Z,78.11
2016-07-15T06:38:34.754Z,77.72
2016-07-15T06:39:34.754Z,77.67
2016-07-15T06:40:34.754Z,77.67
2016-07-15T06:41:34.754Z,76.86
2016-07-15T06:42:34.754Z,76.86
2016-07-15T06:43:34.755Z,76.86
2016-07-15T06:44:34.755Z,76.81
2016-07-15T06:45:34.755Z,76.62
2016-07-15T06:46:34.754Z,76.71
2016-07-15T06:47:34.758Z,76.71
2016-07-15T06:48:34.751Z,76.14
2016-07-15T06:49:34.759Z,76.23
2016-07-15T06:50:34.759Z,76.08
2016-07-15T06:51:34.759Z,75.12
2016-07-15T06:52:34.759Z,75.51
2016-07-15T06:53:34.765Z,75.12
2016-07-15T06:54:34.759Z,74.58
2016-07-15T06:55:34.759Z,73.57
2016-07-15T06:56:34.760Z,73.47
2016-07-15T06:57:34.760Z,73.22
2016-07-15T06:58:34.764Z,70.99
2016-07-15T06:59:34.763Z,68.44
2016-07-15T07:00:34.775Z,66
2016-07-15T07:01:34.764Z,63.95
2016-07-15T07:02:34.043Z,62.06
2016-07-15T07:03:34.764Z,59.62
2016-07-15T07:04:34.767Z,58.4
2016-07-15T07:05:34.768Z,57.46
2016-07-15T07:06:34.768Z,55.94
2016-07-15T07:07:34.768Z,54.24
2016-07-15T07:08:34.771Z,52.91
2016-07-15T07:09:34.772Z,51.46
2016-07-15T07:10:34.772Z,49.85
2016-07-15T07:11:34.775Z,48.52
2016-07-15T07:12:34.775Z,47.67
2016-07-15T07:13:34.784Z,46.8
2016-07-15T07:14:34.780Z,46.03
2016-07-15T07:15:34.784Z,45.54
2016-07-15T07:16:34.784Z,45.14
2016-07-15T07:17:34.785Z,45.5
2016-07-15T07:18:34.788Z,46.34
2016-07-15T07:19:34.788Z,47.22
2016-07-15T07:20:34.792Z,48.16
2016-07-15T07:21:34.792Z,48.13
2016-07-15T07:22:34.797Z,48.33
2016-07-15T07:23:34.796Z,49.17
2016-07-15T07:24:34.806Z,49.15
2016-07-15T07:25:34.800Z,49.82
2016-07-15T07:26:34.805Z,50.21
2016-07-15T07:27:34.805Z,50.49
2016-07-15T07:28:34.809Z,50.4
2016-07-15T07:29:34.809Z,50.57
2016-07-15T07:30:34.813Z,50.47
2016-07-15T07:31:34.815Z,50.4
2016-07-15T07:32:34.817Z,50.49
2016-07-15T07:33:34.816Z,49.82
2016-07-15T07:34:34.820Z,49.73
2016-07-15T07:35:34.820Z,49.43
2016-07-15T07:36:34.824Z,48.3
2016-07-15T07:37:34.825Z,47.85
2016-07-15T07:38:34.829Z,46.88
2016-07-15T07:39:34.829Z,45.48
2016-07-15T07:40:34.833Z,44.82
2016-07-15T07:41:34.837Z,43.51
2016-07-15T07:42:34.838Z,42.47
2016-07-15T07:43:34.841Z,41.42
2016-07-15T07:44:34.841Z,40.67
2016-07-15T07:45:34.845Z,39.9
2016-07-15T07:46:34.848Z,39.32
2016-07-15T07:47:34.850Z,39.22
2016-07-15T07:48:34.853Z,38.46
2016-07-15T07:49:34.857Z,37.41
2016-07-15T07:50:34.857Z,37.23
2016-07-15T07:51:34.861Z,36.08
2016-07-15T07:52:34.145Z,35.32
2016-07-15T07:53:34.869Z,34.58
2016-07-15T07:54:34.868Z,33.33
2016-07-15T07:55:34.874Z,31.88
2016-07-15T07:56:34.881Z,30.57
2016-07-15T07:57:34.892Z,29.61
2016-07-15T07:58:34.885Z,29.24
2016-07-15T07:59:34.898Z,28.55
2016-07-15T08:00:34.893Z,28.85
2016-07-15T08:01:34.893Z,28.65
2016-07-15T08:02:34.897Z,28.07
2016-07-15T08:03:34.902Z,27.29
2016-07-15T08:04:34.906Z,24.99
2016-07-15T08:05:34.189Z,23.46
2016-07-15T08:06:34.913Z,22.33
2016-07-15T08:07:34.917Z,21.06
2016-07-15T08:08:34.922Z,20.98
2016-07-15T08:09:34.926Z,21.08
2016-07-15T08:10:34.931Z,21.45
2016-07-15T08:11:34.934Z,21.35
2016-07-15T08:12:34.938Z,21.16
2016-07-15T08:13:34.941Z,20.86
2016-07-15T08:14:34.945Z,20.37
2016-07-15T08:15:34.954Z,19.31
2016-07-15T08:16:34.961Z,18.16
2016-07-15T08:17:34.962Z,16.91
2016-07-15T08:18:34.965Z,15.47
2016-07-15T08:19:34.970Z,14.79
2016-07-15T08:20:34.974Z,14.41
2016-07-15T08:21:34.262Z,14.51
2016-07-15T08:22:34.267Z,14.69
2016-07-15T08:23:34.989Z,16.05
2016-07-15T08:24:34.995Z,17.69
2016-07-15T08:25:35.002Z,18.44
2016-07-15T08:26:35.006Z,20.56
2016-07-15T08:27:35.010Z,21.7
2016-07-15T08:28:35.015Z,23.41
2016-07-15T08:29:35.019Z,24.93
2016-07-15T08:30:35.022Z,26.65
2016-07-15T08:31:35.030Z,27.97
2016-07-15T08:32:35.034Z,29.19
2016-07-15T08:33:35.038Z,30.44
2016-07-15T08:34:35.043Z,31.37
2016-07-15T08:35:35.047Z,32.42
2016-07-15T08:36:35.050Z,33.37
2016-07-15T08:37:35.060Z,34.13
2016-07-15T08:38:35.059Z,35.18
2016-07-15T08:39:35.063Z,35.37
2016-07-15T08:40:35.067Z,36.13
2016-07-15T08:41:35.067Z,36.42
2016-07-15T08:42:35.070Z,36.71
2016-07-15T08:43:35.074Z,37.29
2016-07-15T08:44:35.078Z,37.19
2016-07-15T08:45:35.083Z,37.67
2016-07-15T08:46:35.087Z,37.75
2016-07-15T08:47:35.091Z,38.04
2016-07-15T08:48:35.095Z,38.62
2016-07-15T08:49:35.099Z,38.23
2016-07-15T08:50:35.103Z,37.75
2016-07-15T08:51:35.107Z,36.42
2016-07-15T08:52:35.112Z,33.95
2016-07-15T08:53:35.115Z,30.81
2016-07-15T08:54:35.120Z,27.01
2016-07-15T08:55:35.123Z,23.49
2016-07-15T08:56:35.128Z,20.14
2016-07-15T08:57:35.132Z,17.45
2016-07-15T08:58:35.135Z,15.63
2016-07-15T08:59:35.140Z,13.29
2016-07-15T09:00:35.144Z,12.04
2016-07-15T09:01:35.147Z,10.68
2016-07-15T09:02:35.160Z,9.62
2016-07-15T09:03:35.156Z,8.94
2016-07-15T09:04:35.164Z,8.35
2016-07-15T09:05:35.167Z,7.76
2016-07-15T09:06:35.172Z,7.56
2016-07-15T09:07:35.176Z,7.37
2016-07-15T09:08:35.184Z,7.27
2016-07-15T09:09:35.188Z,7.86
2016-07-15T09:10:35.191Z,8.84
2016-07-15T09:11:35.200Z,9.31
2016-07-15T09:12:35.203Z,10.88
2016-07-15T09:13:35.208Z,12.13
2016-07-15T09:14:35.212Z,13.78
2016-07-15T09:15:35.220Z,15.41
2016-07-15T09:16:35.224Z,16.94
2016-07-15T09:17:35.228Z,18.47
2016-07-15T09:18:35.233Z,19.71
2016-07-15T09:19:35.240Z,20.86
2016-07-15T09:20:35.245Z,22.1
2016-07-15T09:21:35.249Z,23.82
2016-07-15T09:22:35.252Z,24.77
2016-07-15T09:23:35.257Z,25.62
2016-07-15T09:24:35.260Z,26.27
2016-07-15T09:25:35.265Z,27.32
2016-07-15T09:26:35.269Z,28.28
2016-07-15T09:27:35.282Z,28.65
2016-07-15T09:28:35.277Z,29.99
2016-07-15T09:29:35.281Z,31.04
2016-07-15T09:30:35.284Z,31.49
2016-07-15T09:31:35.289Z,32.46
2016-07-15T09:32:35.293Z,33.12
2016-07-15T09:33:35.296Z,33.12
2016-07-15T09:34:35.300Z,33.97
2016-07-15T09:35:35.305Z,33.68
2016-07-15T09:36:35.309Z,34.64
2016-07-15T09:37:35.313Z,34.82
2016-07-15T09:38:35.317Z,35.4
2016-07-15T09:39:35.321Z,35.38
2016-07-15T09:40:35.325Z,35.67
2016-07-15T09:41:35.329Z,36.44
2016-07-15T09:42:35.333Z,36.61
2016-07-15T09:43:35.328Z,37.1
2016-07-15T09:44:35.337Z,37.1
2016-07-15T09:45:35.340Z,37.48
2016-07-15T09:46:35.345Z,38.16
2016-07-15T09:47:35.354Z,38.45
2016-07-15T09:48:35.354Z,37.96
2016-07-15T09:49:35.360Z,37.39
2016-07-15T09:50:35.364Z,37.77
2016-07-15T09:51:35.361Z,37.48
2016-07-15T09:52:35.361Z,37.39
2016-07-15T09:53:35.380Z,37.21
2016-07-15T09:54:35.373Z,37.6
2016-07-15T09:55:35.377Z,37.6
2016-07-15T09:56:35.382Z,38.56
2016-07-15T09:57:35.382Z,38.56
2016-07-15T09:58:35.385Z,39.34
2016-07-15T09:59:35.390Z,39.82
2016-07-15T10:00:35.393Z,39.99
2016-07-15T10:01:35.398Z,40.37
2016-07-15T10:02:35.397Z,40.86
2016-07-15T10:03:35.401Z,41.24
2016-07-15T10:04:35.406Z,41.44
2016-07-15T10:05:35.410Z,41.72
2016-07-15T10:06:35.410Z,41.44
2016-07-15T10:07:35.415Z,41.53
2016-07-15T10:08:35.419Z,41.14
2016-07-15T10:09:35.423Z,41.44
2016-07-15T10:10:35.426Z,41.05
2016-07-15T10:11:35.426Z,41.14
2016-07-15T10:12:35.431Z,41.14
2016-07-15T10:13:35.435Z,41.24
2016-07-15T10:14:35.434Z,41.63
2016-07-15T10:15:35.443Z,41.51
2016-07-15T10:16:35.442Z,41.71
2016-07-15T10:17:35.446Z,42.19
2016-07-15T10:18:35.951Z,42.86
2016-07-15T10:19:35.454Z,43.54
2016-07-15T10:20:35.455Z,44.31
2016-07-15T10:21:35.460Z,44.48
2016-07-15T10:22:35.463Z,44.48
2016-07-15T10:23:35.475Z,44.19
2016-07-15T10:24:35.467Z,44.38
2016-07-15T10:25:35.471Z,44.57
2016-07-15T10:26:35.475Z,44.48
2016-07-15T10:27:35.479Z,44.45
2016-07-15T10:28:35.483Z,44.74
2016-07-15T10:29:35.479Z,44.74
2016-07-15T10:30:35.488Z,44.65
2016-07-15T10:31:35.491Z,44.93
2016-07-15T10:32:35.491Z,45.03
2016-07-15T10:33:35.496Z,45.22
2016-07-15T10:34:35.499Z,45.13
2016-07-15T10:35:35.495Z,45.22
2016-07-15T10:36:35.504Z,45.59
2016-07-15T10:37:35.504Z,45.51
2016-07-15T10:38:35.507Z,45.68
2016-07-15T10:39:35.512Z,45.78
2016-07-15T10:40:35.515Z,45.29
2016-07-15T10:41:34.799Z,45.2
2016-07-15T10:42:35.525Z,45.49
2016-07-15T10:43:35.523Z,45.49
2016-07-15T10:44:35.528Z,45.2
2016-07-15T10:45:35.528Z,45.2
2016-07-15T10:46:35.532Z,45.29
2016-07-15T10:47:35.537Z,45.03
2016-07-15T10:48:35.536Z,44.65
2016-07-15T10:49:35.540Z,45.13
2016-07-15T10:50:35.544Z,44.65
2016-07-15T10:51:35.558Z,44.65
2016-07-15T10:52:35.550Z,44.74
2016-07-15T10:53:35.553Z,44.74
2016-07-15T10:54:35.553Z,44.84
2016-07-15T10:55:35.557Z,44.45
2016-07-15T10:56:34.840Z,44.45
2016-07-15T10:57:35.561Z,43.88
2016-07-15T10:58:35.564Z,43.78
2016-07-15T10:59:35.570Z,43.71
2016-07-15T11:00:35.568Z,43.8
2016-07-15T11:01:34.853Z,43.41
2016-07-15T11:02:35.577Z,43.8
2016-07-15T11:03:35.576Z,43.44
2016-07-15T11:04:35.580Z,42.67
2016-07-15T11:05:35.585Z,42.57
2016-07-15T11:06:35.585Z,42.57
2016-07-15T11:07:35.589Z,42.11
2016-07-15T11:08:35.593Z,41.63
2016-07-15T11:09:35.593Z,41.63
2016-07-15T11:10:35.945Z,41.36
2016-07-15T11:11:35.600Z,40.69
2016-07-15T11:12:35.601Z,40.12
2016-07-15T11:13:35.605Z,39.74
2016-07-15T11:14:35.609Z,39.84
2016-07-15T11:15:35.609Z,39.36
2016-07-15T11:16:35.613Z,38.58
2016-07-15T11:17:35.617Z,38.6
2016-07-15T11:18:35.621Z,38.79
2016-07-15T11:19:35.621Z,38.7
2016-07-15T11:20:35.624Z,37.63
2016-07-15T11:21:35.629Z,37.37
2016-07-15T11:22:35.634Z,36.71
2016-07-15T11:23:35.633Z,36.13
2016-07-15T11:24:35.635Z,35.86
2016-07-15T11:25:35.637Z,34.89
2016-07-15T11:26:35.641Z,34.52
2016-07-15T11:27:35.644Z,34.05
2016-07-15T11:28:35.645Z,33.94
2016-07-15T11:29:35.682Z,33.94
2016-07-15T11:30:35.653Z,33.84
2016-07-15T11:31:35.657Z,33.45
2016-07-15T11:32:35.656Z,33.83
2016-07-15T11:33:35.664Z,33.34
2016-07-15T11:34:35.665Z,33.26
2016-07-15T11:35:35.670Z,33.17
2016-07-15T11:36:35.668Z,33.17
2016-07-15T11:37:35.672Z,32.68
2016-07-15T11:38:34.969Z,33.07
2016-07-15T11:39:35.681Z,33.07
2016-07-15T11:40:35.680Z,32.89
2016-07-15T11:41:35.685Z,32.87
2016-07-15T11:42:35.688Z,33.09
2016-07-15T11:43:35.692Z,32.99
2016-07-15T11:44:35.692Z,32.41
2016-07-15T11:45:35.754Z,31.84
2016-07-15T11:46:35.695Z,31.54
2016-07-15T11:47:35.712Z,30.98
2016-07-15T11:48:35.705Z,30.88
2016-07-15T11:49:35.712Z,30.66
2016-07-15T11:50:35.712Z,30.86
2016-07-15T11:51:35.718Z,31.05
2016-07-15T11:52:35.721Z,30.96
2016-07-15T11:53:35.720Z,31.44
2016-07-15T11:54:35.725Z,31.91
2016-07-15T11:55:35.729Z,32.29
2016-07-15T11:56:35.733Z,32.96
2016-07-15T11:57:35.733Z,33.91
2016-07-15T11:58:35.736Z,34.78
2016-07-15T11:59:35.749Z,35.24
2016-07-15T12:00:35.745Z,35.44
2016-07-15T12:01:35.745Z,35.9
2016-07-15T12:02:35.749Z,36.77
2016-07-15T12:03:35.753Z,37.33
2016-07-15T12:04:35.752Z,38.28
2016-07-15T12:05:35.757Z,39.22
2016-07-15T12:06:35.761Z,40.64
2016-07-15T12:07:35.765Z,42.09
2016-07-15T12:08:35.766Z,43.03
2016-07-15T12:09:35.769Z,43.23
2016-07-15T12:10:35.772Z,43.49
2016-07-15T12:11:35.774Z,44.07
2016-07-15T12:12:35.777Z,44.53
2016-07-15T12:13:35.777Z,45.18
2016-07-15T12:14:35.781Z,45.85
2016-07-15T12:15:35.784Z,46.31
2016-07-15T12:16:35.789Z,47.08
2016-07-15T12:17:35.794Z,47.85
2016-07-15T12:18:35.794Z,49.1
2016-07-15T12:19:35.794Z,50.03
2016-07-15T12:20:35.798Z,50.42
2016-07-15T12:21:35.798Z,51.47
2016-07-15T12:22:35.801Z,52.02
2016-07-15T12:23:35.803Z,52.69
2016-07-15T12:24:35.807Z,53.56
2016-07-15T12:25:35.810Z,53.85
2016-07-15T12:26:35.810Z,53.36
2016-07-15T12:27:35.813Z,53.27
2016-07-15T12:28:35.818Z,53.46
2016-07-15T12:29:35.818Z,53.08
2016-07-15T12:30:35.821Z,52.81
2016-07-15T12:31:35.823Z,53.2
2016-07-15T12:32:35.826Z,52.43
2016-07-15T12:33:35.826Z,51.79
2016-07-15T12:34:35.830Z,52.26
2016-07-15T12:35:35.830Z,51.98
2016-07-15T12:36:35.835Z,52.46
2016-07-15T12:37:35.838Z,52.26
2016-07-15T12:38:35.848Z,52.75
2016-07-15T12:39:35.842Z,53.03
2016-07-15T12:40:35.842Z,53.52
2016-07-15T12:41:35.847Z,54.77
2016-07-15T12:42:35.851Z,55.22
2016-07-15T12:43:35.850Z,55.22
2016-07-15T12:44:35.854Z,54.45
2016-07-15T12:45:35.138Z,55.22
2016-07-15T12:46:35.862Z,55.12
2016-07-15T12:47:35.862Z,55.02
2016-07-15T12:48:35.861Z,54.96
2016-07-15T12:49:35.867Z,54.77
2016-07-15T12:50:35.867Z,53.92
2016-07-15T12:51:35.911Z,53.74
2016-07-15T12:52:35.875Z,52.51
2016-07-15T12:53:35.874Z,52.03
2016-07-15T12:54:35.879Z,51.17